Time;durP1;ratioP1;P1;durP2;ratioP2;P2;SDS_P1;SDS_P2;PMS_P1;PMS_P2;Temp;Humidity;BMP_temperature;BMP_pressure;BME280_temperature;BME280_humidity;BME280_pressure;Samples;Min_cycle;Max_cycle;Signal;HPM_P1;HPM_P2
2022/04/20 00:02:01;;;;;;;9.05;4.72;;;;;;;;;;5076000;28;20040;-75
2022/04/20 00:04:27;;;;;;;9.02;5.10;;;;;;;;;;5092712;28;20092;-74
2022/04/20 00:06:53;;;;;;;10.45;5.20;;;;;;;;;;5092259;28;20069;-74
2022/04/20 00:09:20;;;;;;;9.80;5.47;;;;;;;;;;5092600;28;20491;-75
2022/04/20 00:11:46;;;;;;;9.75;4.68;;;;;;;;;;5092290;28;20039;-74
2022/04/20 00:14:13;;;;;;;8.55;5.07;;;;;;;;;;5092684;28;20032;-75
2022/04/20 00:16:39;;;;;;;9.43;5.68;;;;;;;;;;5075637;28;20071;-74
2022/04/20 00:19:05;;;;;;;9.98;5.25;;;;;;;;;;5092520;28;20046;-75
2022/04/20 00:21:31;;;;;;;9.13;5.55;;;;;;;;;;5092596;28;20039;-75
2022/04/20 00:23:58;;;;;;;9.35;5.50;;;;;;;;;;5092108;28;20044;-74
2022/04/20 00:26:24;;;;;;;10.25;6.10;;;;;;;;;;5092064;28;20046;-75
2022/04/20 00:28:50;;;;;;;11.68;5.32;;;;;;;;;;5092104;28;20295;-75
2022/04/20 00:31:16;;;;;;;9.35;5.47;;;;;;;;;;5092040;28;20039;-75
2022/04/20 00:33:42;;;;;;;10.52;5.38;;;;;;;;;;5071636;28;20059;-75
2022/04/20 00:36:09;;;;;;;10.60;5.93;;;;;;;;;;5076674;28;20093;-75
2022/04/20 00:38:35;;;;;;;10.45;5.72;;;;;;;;;;5088816;28;20151;-75
2022/04/20 00:41:01;;;;;;;9.98;5.30;;;;;;;;;;5088457;28;20040;-75
2022/04/20 00:43:28;;;;;;;9.82;5.53;;;;;;;;;;5088445;28;20046;-74
2022/04/20 00:45:54;;;;;;;9.23;5.53;;;;;;;;;;5088608;28;20115;-75
2022/04/20 00:48:21;;;;;;;9.60;5.03;;;;;;;;;;5089108;28;20294;-74
2022/04/20 00:50:47;;;;;;;11.77;6.20;;;;;;;;;;5084708;28;20494;-75
2022/04/20 00:53:14;;;;;;;10.23;5.90;;;;;;;;;;5086965;28;20069;-75
2022/04/20 00:55:40;;;;;;;11.73;5.45;;;;;;;;;;5088152;28;20039;-74
2022/04/20 00:58:06;;;;;;;8.18;5.22;;;;;;;;;;5088365;28;20070;-74
2022/04/20 01:00:32;;;;;;;11.00;5.57;;;;;;;;;;5088361;28;20422;-74
2022/04/20 01:02:59;;;;;;;10.52;5.25;;;;;;;;;;5088247;28;20044;-75
2022/04/20 01:05:25;;;;;;;10.15;5.90;;;;;;;;;;5088564;28;20402;-75
2022/04/20 01:07:51;;;;;;;9.68;5.53;;;;;;;;;;5088481;28;20067;-75
2022/04/20 01:10:18;;;;;;;10.07;5.50;;;;;;;;;;5070929;28;20093;-75
2022/04/20 01:12:45;;;;;;;9.80;5.53;;;;;;;;;;5070890;28;20032;-75
2022/04/20 01:15:12;;;;;;;10.82;5.78;;;;;;;;;;5087823;28;20044;-75
2022/04/20 01:17:38;;;;;;;9.13;5.93;;;;;;;;;;5087876;28;20044;-75
2022/04/20 01:20:12;;;;;;;10.77;5.88;;;;;;;;;;5071216;28;20122;-74
2022/04/20 01:22:38;;;;;;;11.85;5.78;;;;;;;;;;5087737;28;20036;-75
2022/04/20 01:25:05;;;;;;;11.75;5.80;;;;;;;;;;5087759;28;20082;-74
2022/04/20 01:27:31;;;;;;;9.07;4.93;;;;;;;;;;5070966;28;20068;-74
2022/04/20 01:29:57;;;;;;;10.88;5.68;;;;;;;;;;5087654;28;20076;-74
2022/04/20 01:32:23;;;;;;;10.20;5.63;;;;;;;;;;5087732;28;20044;-75
2022/04/20 01:34:49;;;;;;;11.80;5.78;;;;;;;;;;5091156;28;20458;-74
2022/04/20 01:37:15;;;;;;;10.30;5.30;;;;;;;;;;5091135;28;20043;-74
2022/04/20 01:39:42;;;;;;;9.57;4.82;;;;;;;;;;5090930;28;20043;-74
2022/04/20 01:42:08;;;;;;;9.35;5.63;;;;;;;;;;5090723;28;20055;-75
2022/04/20 01:44:34;;;;;;;9.38;5.35;;;;;;;;;;5090975;28;20043;-74
2022/04/20 01:47:00;;;;;;;9.38;5.60;;;;;;;;;;5090487;28;20050;-74
2022/04/20 01:49:27;;;;;;;9.77;5.43;;;;;;;;;;5090876;28;20618;-74
2022/04/20 01:51:54;;;;;;;12.52;6.03;;;;;;;;;;5090420;28;20562;-74
2022/04/20 01:54:20;;;;;;;9.32;5.60;;;;;;;;;;5091145;28;20039;-74
2022/04/20 01:56:47;;;;;;;11.75;5.60;;;;;;;;;;5090859;28;20124;-74
2022/04/20 01:59:14;;;;;;;10.48;5.80;;;;;;;;;;5090624;28;20039;-74
2022/04/20 02:04:25;;;;;;;8.40;5.60;;;;;;;;;;5109875;28;20096;-74
2022/04/20 02:06:51;;;;;;;10.20;6.13;;;;;;;;;;5069482;28;20055;-74
2022/04/20 02:09:17;;;;;;;10.55;6.05;;;;;;;;;;5090498;28;20123;-74
2022/04/20 02:11:43;;;;;;;9.20;5.50;;;;;;;;;;5073670;28;20043;-74
2022/04/20 02:14:09;;;;;;;9.48;5.70;;;;;;;;;;5073591;28;20063;-74
2022/04/20 02:16:36;;;;;;;10.18;5.95;;;;;;;;;;5090608;28;20232;-74
2022/04/20 02:19:03;;;;;;;9.13;5.75;;;;;;;;;;5090945;28;20468;-74
2022/04/20 02:21:29;;;;;;;11.27;5.90;;;;;;;;;;5090817;28;20614;-74
2022/04/20 02:23:55;;;;;;;10.65;5.70;;;;;;;;;;5090628;28;20404;-74
2022/04/20 02:26:21;;;;;;;11.02;6.07;;;;;;;;;;5090444;28;20032;-74
2022/04/20 02:29:06;;;;;;;11.05;6.03;;;;;;;;;;5090930;28;20667;-74
2022/04/20 02:31:32;;;;;;;9.75;5.85;;;;;;;;;;5094199;28;20061;-74
2022/04/20 02:33:58;;;;;;;9.57;5.72;;;;;;;;;;5077504;28;20569;-74
2022/04/20 02:36:25;;;;;;;11.38;6.20;;;;;;;;;;5092966;28;20486;-74
2022/04/20 02:38:51;;;;;;;11.02;6.15;;;;;;;;;;5094157;28;20063;-74
2022/04/20 02:41:17;;;;;;;9.18;5.28;;;;;;;;;;5094485;28;20028;-74
2022/04/20 02:43:43;;;;;;;10.13;5.93;;;;;;;;;;5094315;28;20188;-74
2022/04/20 02:46:10;;;;;;;11.77;5.63;;;;;;;;;;5094176;28;20043;-75
2022/04/20 02:48:36;;;;;;;9.70;5.82;;;;;;;;;;5094315;28;20062;-74
2022/04/20 02:51:02;;;;;;;12.38;6.82;;;;;;;;;;5077057;28;20036;-74
2022/04/20 02:53:29;;;;;;;12.65;6.03;;;;;;;;;;5077147;28;20411;-74
2022/04/20 02:55:55;;;;;;;9.63;5.75;;;;;;;;;;5094313;28;20135;-75
2022/04/20 02:58:21;;;;;;;9.75;5.82;;;;;;;;;;5093769;28;20046;-74
2022/04/20 03:00:48;;;;;;;10.38;5.10;;;;;;;;;;5076945;28;20039;-74
2022/04/20 03:03:14;;;;;;;10.02;5.55;;;;;;;;;;5093635;28;20043;-74
2022/04/20 03:05:41;;;;;;;10.25;6.15;;;;;;;;;;5094013;28;20043;-74
2022/04/20 03:08:07;;;;;;;10.48;6.60;;;;;;;;;;5077140;28;20123;-74
2022/04/20 03:10:33;;;;;;;11.07;6.35;;;;;;;;;;5093559;28;20040;-74
2022/04/20 03:12:59;;;;;;;10.52;6.10;;;;;;;;;;5093700;28;20096;-74
2022/04/20 03:15:26;;;;;;;10.32;6.15;;;;;;;;;;5093987;28;20199;-74
2022/04/20 03:17:52;;;;;;;11.68;6.68;;;;;;;;;;5076628;28;20114;-74
2022/04/20 03:20:18;;;;;;;11.13;6.05;;;;;;;;;;5075647;28;20043;-74
2022/04/20 03:22:44;;;;;;;11.57;6.25;;;;;;;;;;5092430;28;20046;-74
2022/04/20 03:25:11;;;;;;;13.32;6.82;;;;;;;;;;5093433;28;20043;-74
2022/04/20 03:27:37;;;;;;;10.63;6.32;;;;;;;;;;5093231;28;20051;-74
2022/04/20 03:30:03;;;;;;;11.23;5.90;;;;;;;;;;5093333;28;20436;-74
2022/04/20 03:32:29;;;;;;;11.95;6.45;;;;;;;;;;5093295;28;20439;-75
2022/04/20 03:34:56;;;;;;;11.52;6.38;;;;;;;;;;5076651;28;20063;-74
2022/04/20 03:37:22;;;;;;;10.95;6.15;;;;;;;;;;5093252;28;20035;-74
2022/04/20 03:39:48;;;;;;;10.18;6.05;;;;;;;;;;5076391;28;20047;-74
2022/04/20 03:42:14;;;;;;;9.90;6.05;;;;;;;;;;5075307;28;20042;-74
2022/04/20 03:44:41;;;;;;;10.40;6.40;;;;;;;;;;5076343;28;20039;-74
2022/04/20 03:47:07;;;;;;;14.77;6.47;;;;;;;;;;5093198;28;20555;-74
2022/04/20 03:49:33;;;;;;;10.30;6.53;;;;;;;;;;5092864;28;20406;-74
2022/04/20 03:52:01;;;;;;;10.38;6.03;;;;;;;;;;5076190;28;20039;-74
2022/04/20 03:54:27;;;;;;;12.77;7.50;;;;;;;;;;5093365;28;20035;-74
2022/04/20 03:57:10;;;;;;;10.07;6.60;;;;;;;;;;5092682;28;20043;-74
2022/04/20 03:59:37;;;;;;;10.20;6.18;;;;;;;;;;5093105;28;20048;-74
2022/04/20 04:02:05;;;;;;;11.30;6.65;;;;;;;;;;5076139;28;20044;-74
2022/04/20 04:04:31;;;;;;;10.15;6.18;;;;;;;;;;5092896;28;20495;-74
2022/04/20 04:06:57;;;;;;;12.23;6.82;;;;;;;;;;5092793;28;20448;-74
2022/04/20 04:09:24;;;;;;;9.88;6.25;;;;;;;;;;5092599;28;20544;-74
2022/04/20 04:11:50;;;;;;;11.63;7.28;;;;;;;;;;5092708;28;20309;-74
2022/04/20 04:14:17;;;;;;;13.10;7.05;;;;;;;;;;5092669;28;20039;-73
2022/04/20 04:16:44;;;;;;;11.25;7.05;;;;;;;;;;5092196;28;20046;-73
2022/04/20 04:19:11;;;;;;;14.25;7.35;;;;;;;;;;5076137;28;20502;-74
2022/04/20 04:21:38;;;;;;;11.20;6.82;;;;;;;;;;5092386;28;20047;-73
2022/04/20 04:24:09;;;;;;;11.23;7.07;;;;;;;;;;5092568;28;20035;-74
2022/04/20 04:26:38;;;;;;;11.48;6.97;;;;;;;;;;5090592;28;20046;-74
2022/04/20 04:29:04;;;;;;;11.05;7.10;;;;;;;;;;5091926;28;20051;-74
2022/04/20 04:31:30;;;;;;;12.07;7.30;;;;;;;;;;5092063;28;20236;-73
2022/04/20 04:33:57;;;;;;;11.65;7.10;;;;;;;;;;5091307;28;20052;-74
2022/04/20 04:36:23;;;;;;;10.73;7.40;;;;;;;;;;5091854;28;20144;-74
2022/04/20 04:38:49;;;;;;;13.65;7.85;;;;;;;;;;5091769;28;20038;-74
2022/04/20 04:41:16;;;;;;;10.63;6.95;;;;;;;;;;5091505;28;20039;-74
2022/04/20 04:43:42;;;;;;;11.52;7.18;;;;;;;;;;5092002;28;20044;-74
2022/04/20 04:48:53;;;;;;;;;;;;;;;;;;5092077;28;20047;-74
2022/04/20 04:51:19;;;;;;;10.95;7.13;;;;;;;;;;5125734;27;19922;-74
2022/04/20 04:53:45;;;;;;;10.70;7.18;;;;;;;;;;5074317;28;20035;-74
2022/04/20 04:56:11;;;;;;;11.23;7.90;;;;;;;;;;5109847;28;20215;-74
2022/04/20 04:58:37;;;;;;;12.60;6.82;;;;;;;;;;5091698;28;20090;-74
2022/04/20 05:01:03;;;;;;;11.40;7.38;;;;;;;;;;5091130;28;20044;-73
2022/04/20 05:03:30;;;;;;;11.52;7.78;;;;;;;;;;5090996;28;20386;-73
2022/04/20 05:05:57;;;;;;;11.85;7.95;;;;;;;;;;5084140;28;20039;-74
2022/04/20 05:08:23;;;;;;;10.07;6.78;;;;;;;;;;5088367;28;20127;-74
2022/04/20 05:10:49;;;;;;;12.35;7.15;;;;;;;;;;5085187;28;20403;-74
2022/04/20 05:13:16;;;;;;;11.93;7.00;;;;;;;;;;5091212;28;20115;-73
2022/04/20 05:15:42;;;;;;;12.45;6.85;;;;;;;;;;5091391;28;20047;-73
2022/04/20 05:18:08;;;;;;;11.48;7.60;;;;;;;;;;5074326;28;20133;-73
2022/04/20 05:20:34;;;;;;;10.02;6.95;;;;;;;;;;5089833;28;20039;-74
2022/04/20 05:23:00;;;;;;;10.95;7.38;;;;;;;;;;5086097;28;20494;-74
2022/04/20 05:25:27;;;;;;;11.20;7.35;;;;;;;;;;5086761;28;20042;-73
2022/04/20 05:27:53;;;;;;;12.73;6.78;;;;;;;;;;5090676;28;20035;-74
2022/04/20 05:30:19;;;;;;;12.40;7.95;;;;;;;;;;5096895;28;20042;-74
2022/04/20 05:32:45;;;;;;;12.80;7.65;;;;;;;;;;5096641;27;20054;-74
2022/04/20 05:35:11;;;;;;;12.32;7.65;;;;;;;;;;5096190;27;20106;-74
2022/04/20 05:43:10;;;;;;;11.55;7.15;;;;;;;;;;5095843;28;20142;-74
2022/04/20 05:45:37;;;;;;;10.90;7.45;;;;;;;;;;5074477;27;20054;-74
2022/04/20 05:48:06;;;;;;;11.23;7.38;;;;;;;;;;5096645;27;20502;-74
2022/04/20 05:50:32;;;;;;;12.50;7.10;;;;;;;;;;5081740;28;20298;-74
2022/04/20 05:53:00;;;;;;;10.43;6.60;;;;;;;;;;5071725;28;20549;-73
2022/04/20 05:55:26;;;;;;;11.40;7.43;;;;;;;;;;5090029;28;20035;-74
2022/04/20 05:57:53;;;;;;;12.38;7.88;;;;;;;;;;5090595;28;20040;-74
2022/04/20 06:00:19;;;;;;;11.50;7.40;;;;;;;;;;5090464;28;20495;-74
2022/04/20 06:02:45;;;;;;;12.90;6.90;;;;;;;;;;5090422;28;20550;-74
2022/04/20 06:05:12;;;;;;;12.52;7.72;;;;;;;;;;5089984;28;20499;-73
2022/04/20 06:07:38;;;;;;;12.38;7.80;;;;;;;;;;5073546;28;20050;-74
2022/04/20 06:10:04;;;;;;;11.93;7.80;;;;;;;;;;5073429;28;20203;-74
2022/04/20 06:12:31;;;;;;;10.98;8.02;;;;;;;;;;5090704;28;20046;-74
2022/04/20 06:14:57;;;;;;;11.35;7.88;;;;;;;;;;5073879;28;20045;-74
2022/04/20 06:17:23;;;;;;;13.02;8.38;;;;;;;;;;5090506;28;20445;-74
2022/04/20 06:19:49;;;;;;;13.10;8.25;;;;;;;;;;5090223;28;20053;-74
2022/04/20 06:22:15;;;;;;;14.30;10.38;;;;;;;;;;5090977;28;20040;-73
2022/04/20 06:24:42;;;;;;;14.80;8.65;;;;;;;;;;5090465;28;20046;-73
2022/04/20 06:27:08;;;;;;;12.88;8.38;;;;;;;;;;5073469;28;20040;-74
2022/04/20 06:29:35;;;;;;;16.67;9.50;;;;;;;;;;5089937;28;20059;-74
2022/04/20 06:32:01;;;;;;;16.17;9.95;;;;;;;;;;5073366;28;20364;-74
2022/04/20 06:34:28;;;;;;;13.82;9.73;;;;;;;;;;5089989;28;20047;-73
2022/04/20 06:36:54;;;;;;;11.52;8.00;;;;;;;;;;5090463;28;20550;-74
2022/04/20 06:39:20;;;;;;;12.55;9.18;;;;;;;;;;5090427;28;20082;-74
2022/04/20 06:41:46;;;;;;;13.88;9.00;;;;;;;;;;5090607;28;20043;-73
2022/04/20 06:44:12;;;;;;;12.88;8.65;;;;;;;;;;5090355;28;20406;-73
2022/04/20 06:46:38;;;;;;;13.68;9.73;;;;;;;;;;5090053;28;20184;-74
2022/04/20 06:49:06;;;;;;;15.07;9.13;;;;;;;;;;5073204;28;20063;-74
2022/04/20 06:58:31;;;;;;;10.77;8.27;;;;;;;;;;5090080;28;20172;-74
2022/04/20 06:59:48;;;;;;;9.23;6.25;;;;;;;;;;5089981;28;20050;-74
2022/04/20 07:02:15;;;;;;;11.05;6.43;;;;;;;;;;5089879;28;20092;-74
2022/04/20 07:04:42;;;;;;;11.48;6.82;;;;;;;;;;5089904;28;20051;-75
2022/04/20 07:07:08;;;;;;;10.15;6.95;;;;;;;;;;5077526;28;20123;-74
2022/04/20 07:09:35;;;;;;;9.02;6.10;;;;;;;;;;5090047;28;20414;-74
2022/04/20 07:12:01;;;;;;;11.32;6.78;;;;;;;;;;5090166;28;20402;-74
2022/04/20 07:14:27;;;;;;;12.57;6.90;;;;;;;;;;5090192;28;20036;-74
2022/04/20 07:16:53;;;;;;;10.07;6.20;;;;;;;;;;5092423;28;20039;-74
2022/04/20 07:19:20;;;;;;;11.18;6.13;;;;;;;;;;5093263;28;20047;-75
2022/04/20 07:21:46;;;;;;;11.32;6.35;;;;;;;;;;5093910;28;20040;-75
2022/04/20 07:24:12;;;;;;;9.57;5.65;;;;;;;;;;5093413;28;20074;-74
2022/04/20 07:26:38;;;;;;;9.38;5.75;;;;;;;;;;5093844;28;20470;-75
2022/04/20 07:29:04;;;;;;;10.80;6.38;;;;;;;;;;5093168;28;20046;-75
2022/04/20 07:31:30;;;;;;;9.93;5.57;;;;;;;;;;5093619;28;20036;-75
2022/04/20 07:33:58;;;;;;;10.10;5.70;;;;;;;;;;5093046;28;20055;-75
2022/04/20 07:36:24;;;;;;;8.90;5.10;;;;;;;;;;5093091;28;20051;-75
2022/04/20 07:38:50;;;;;;;9.05;5.32;;;;;;;;;;5092987;28;20399;-75
2022/04/20 07:41:16;;;;;;;8.43;5.05;;;;;;;;;;5076342;28;20050;-75
2022/04/20 07:43:43;;;;;;;8.52;4.95;;;;;;;;;;5093389;28;20031;-74
2022/04/20 07:46:12;;;;;;;8.38;4.97;;;;;;;;;;5127304;27;20071;-75
2022/04/20 07:48:38;;;;;;;7.82;4.72;;;;;;;;;;5092739;28;20046;-75
2022/04/20 07:51:05;;;;;;;7.93;4.72;;;;;;;;;;5093049;28;20043;-75
2022/04/20 07:53:31;;;;;;;7.65;4.07;;;;;;;;;;5092900;28;20044;-75
2022/04/20 07:55:57;;;;;;;8.70;4.50;;;;;;;;;;5092893;28;20048;-75
2022/04/20 07:58:23;;;;;;;7.18;4.35;;;;;;;;;;5092933;28;20035;-75
2022/04/20 08:00:51;;;;;;;6.60;4.30;;;;;;;;;;5092511;28;20051;-74
2022/04/20 08:03:18;;;;;;;8.07;4.53;;;;;;;;;;5093335;28;20050;-75
2022/04/20 08:05:49;;;;;;;7.78;4.00;;;;;;;;;;5075636;28;20046;-75
2022/04/20 08:08:16;;;;;;;9.05;4.40;;;;;;;;;;5092635;28;20047;-75
2022/04/20 08:10:42;;;;;;;7.50;3.63;;;;;;;;;;5092318;28;20301;-75
2022/04/20 08:15:55;;;;;;;6.75;3.80;;;;;;;;;;5110128;27;20610;-74
2022/04/20 08:18:22;;;;;;;6.93;3.67;;;;;;;;;;5092519;28;20429;-75
2022/04/20 08:20:49;;;;;;;6.88;3.55;;;;;;;;;;5092515;28;20038;-75
2022/04/20 08:23:15;;;;;;;6.30;3.25;;;;;;;;;;5092389;28;20041;-76
2022/04/20 08:25:42;;;;;;;5.80;3.40;;;;;;;;;;5075880;28;20494;-75
2022/04/20 08:28:08;;;;;;;9.32;3.47;;;;;;;;;;5091652;28;20048;-75
2022/04/20 08:30:35;;;;;;;7.40;3.72;;;;;;;;;;5092030;28;20035;-75
2022/04/20 08:33:02;;;;;;;6.65;3.20;;;;;;;;;;5088464;28;20109;-75
2022/04/20 08:35:28;;;;;;;6.05;2.90;;;;;;;;;;5088759;28;20656;-76
2022/04/20 08:37:55;;;;;;;7.35;3.35;;;;;;;;;;5089186;28;20638;-75
2022/04/20 08:40:21;;;;;;;6.35;3.08;;;;;;;;;;5089061;28;20127;-75
2022/04/20 08:42:50;;;;;;;5.00;2.80;;;;;;;;;;5071896;28;20059;-75
2022/04/20 08:45:17;;;;;;;6.28;3.90;;;;;;;;;;5088212;28;20054;-75
2022/04/20 08:47:45;;;;;;;7.63;3.10;;;;;;;;;;5088459;28;20044;-75
2022/04/20 08:50:11;;;;;;;6.35;2.80;;;;;;;;;;5071736;28;20040;-75
2022/04/20 08:52:38;;;;;;;5.35;2.70;;;;;;;;;;5071325;28;20043;-75
2022/04/20 08:55:20;;;;;;;5.35;2.42;;;;;;;;;;5088406;28;20040;-75
2022/04/20 08:57:47;;;;;;;4.85;2.38;;;;;;;;;;5071239;28;20044;-75
2022/04/20 09:00:19;;;;;;;4.63;2.05;;;;;;;;;;5088211;28;20298;-75
2022/04/20 09:02:46;;;;;;;3.83;2.13;;;;;;;;;;5088051;28;20055;-75
2022/04/20 09:05:12;;;;;;;6.45;2.20;;;;;;;;;;5087864;28;20040;-76
2022/04/20 09:07:39;;;;;;;4.72;2.08;;;;;;;;;;5088283;28;20041;-75
2022/04/20 09:10:05;;;;;;;6.60;2.25;;;;;;;;;;5088098;28;20046;-76
2022/04/20 09:12:32;;;;;;;5.28;2.00;;;;;;;;;;5087845;28;20249;-75
2022/04/20 09:15:00;;;;;;;4.00;1.90;;;;;;;;;;5087826;28;20126;-74
2022/04/20 09:17:26;;;;;;;4.28;1.90;;;;;;;;;;5087975;28;20040;-75
2022/04/20 09:19:54;;;;;;;3.28;1.90;;;;;;;;;;5087687;28;20040;-75
2022/04/20 09:22:27;;;;;;;3.10;1.88;;;;;;;;;;5088106;28;20082;-75
2022/04/20 09:25:03;;;;;;;4.30;2.05;;;;;;;;;;5087786;28;20048;-75
2022/04/20 09:27:33;;;;;;;6.00;2.33;;;;;;;;;;5071054;28;20036;-76
2022/04/20 09:29:59;;;;;;;3.97;1.90;;;;;;;;;;5087277;28;20044;-75
2022/04/20 09:32:33;;;;;;;3.28;2.05;;;;;;;;;;5087942;28;20514;-76
2022/04/20 09:35:03;;;;;;;3.95;1.95;;;;;;;;;;5090723;28;20043;-75
2022/04/20 09:37:29;;;;;;;4.35;2.10;;;;;;;;;;5065398;28;20043;-75
2022/04/20 09:39:56;;;;;;;3.35;1.85;;;;;;;;;;5090069;28;20186;-76
2022/04/20 09:42:22;;;;;;;5.28;2.00;;;;;;;;;;5090738;28;20278;-76
2022/04/20 09:45:02;;;;;;;6.38;2.53;;;;;;;;;;5090844;28;20104;-76
2022/04/20 09:50:20;;;;;;;6.53;2.13;;;;;;;;;;5090679;28;20050;-76
2022/04/20 09:52:50;;;;;;;3.35;2.03;;;;;;;;;;5090601;28;20104;-75
2022/04/20 09:55:28;;;;;;;3.67;1.90;;;;;;;;;;5090471;28;20075;-76
2022/04/20 09:58:09;;;;;;;4.07;2.17;;;;;;;;;;5090459;28;20041;-75
2022/04/20 10:00:43;;;;;;;4.50;2.35;;;;;;;;;;5090390;28;20352;-76
2022/04/20 10:03:09;;;;;;;5.78;2.30;;;;;;;;;;5090742;28;20048;-76
2022/04/20 10:05:37;;;;;;;3.80;2.20;;;;;;;;;;5090596;28;20043;-76
2022/04/20 10:08:05;;;;;;;4.35;1.98;;;;;;;;;;5124661;28;20047;-76
2022/04/20 10:10:32;;;;;;;4.50;2.25;;;;;;;;;;5090945;28;20054;-76
2022/04/20 10:13:00;;;;;;;4.60;2.40;;;;;;;;;;5090768;28;20027;-76
2022/04/20 10:18:16;;;;;;;5.78;2.50;;;;;;;;;;5090612;28;20480;-76
2022/04/20 10:20:46;;;;;;;5.20;2.35;;;;;;;;;;5074547;28;20070;-75
2022/04/20 10:23:14;;;;;;;4.35;2.28;;;;;;;;;;5090337;28;20073;-76
2022/04/20 10:25:41;;;;;;;4.10;2.20;;;;;;;;;;5073701;28;20127;-76
2022/04/20 10:28:17;;;;;;;4.43;2.30;;;;;;;;;;5090155;28;20334;-75
2022/04/20 10:30:58;;;;;;;7.43;2.40;;;;;;;;;;5090103;28;20228;-76
2022/04/20 10:33:25;;;;;;;4.63;2.20;;;;;;;;;;5090158;28;20055;-76
2022/04/20 10:35:54;;;;;;;3.70;2.13;;;;;;;;;;5090444;28;20477;-76
2022/04/20 10:38:21;;;;;;;4.13;1.90;;;;;;;;;;5090374;28;20123;-76
2022/04/20 10:40:58;;;;;;;4.70;1.90;;;;;;;;;;5089963;28;20044;-76
2022/04/20 10:43:25;;;;;;;3.72;1.70;;;;;;;;;;5073832;28;20074;-76
2022/04/20 10:46:09;;;;;;;3.88;1.80;;;;;;;;;;5090259;28;20039;-76
2022/04/20 10:48:51;;;;;;;4.50;1.80;;;;;;;;;;5090355;28;20126;-77
2022/04/20 10:51:24;;;;;;;3.95;1.77;;;;;;;;;;5081684;28;20043;-75
2022/04/20 10:53:52;;;;;;;3.42;1.70;;;;;;;;;;5093719;28;20063;-76
2022/04/20 10:56:19;;;;;;;4.57;1.60;;;;;;;;;;5076982;28;20039;-75
2022/04/20 10:59:12;;;;;;;5.57;2.00;;;;;;;;;;5093803;28;20512;-76
2022/04/20 11:01:57;;;;;;;4.15;1.85;;;;;;;;;;5090155;28;20054;-76
2022/04/20 11:04:23;;;;;;;;;;;;;;;;;;5094464;28;20063;-76
2022/04/20 11:07:09;;;;;;;3.75;1.90;;;;;;;;;;5093382;28;19916;-76
2022/04/20 11:09:52;;;;;;;3.78;1.77;;;;;;;;;;5093163;28;20120;-76
2022/04/20 11:21:04;;;;;;;3.05;1.77;;;;;;;;;;5080045;28;20120;-76
2022/04/20 11:23:49;;;;;;;3.40;1.88;;;;;;;;;;5077171;28;20063;-77
2022/04/20 11:26:19;;;;;;;4.25;1.90;;;;;;;;;;5076530;28;20067;-76
2022/04/20 11:28:46;;;;;;;3.67;1.60;;;;;;;;;;5076592;28;20507;-77
2022/04/20 11:31:12;;;;;;;3.85;1.92;;;;;;;;;;5093082;28;20040;-77
2022/04/20 11:33:42;;;;;;;4.90;2.13;;;;;;;;;;5092986;28;20077;-76
2022/04/20 11:36:10;;;;;;;4.80;2.30;;;;;;;;;;5076227;28;20118;-77
2022/04/20 11:38:37;;;;;;;2.97;1.75;;;;;;;;;;5076419;28;20120;-77
2022/04/20 11:41:05;;;;;;;4.30;2.10;;;;;;;;;;5076644;28;20394;-77
2022/04/20 11:43:31;;;;;;;2.97;1.60;;;;;;;;;;5076146;28;20040;-77
2022/04/20 11:45:58;;;;;;;4.88;1.75;;;;;;;;;;5093290;28;20483;-77
2022/04/20 11:48:24;;;;;;;2.35;1.50;;;;;;;;;;5093046;28;20049;-78
2022/04/20 11:50:58;;;;;;;2.95;1.70;;;;;;;;;;5076357;28;20084;-77
2022/04/20 11:53:33;;;;;;;3.70;1.83;;;;;;;;;;5092700;28;20039;-77
2022/04/20 11:56:01;;;;;;;4.32;1.60;;;;;;;;;;5092833;28;20071;-76
2022/04/20 11:58:27;;;;;;;4.18;1.73;;;;;;;;;;5075981;28;20040;-77
2022/04/20 12:01:07;;;;;;;3.10;1.45;;;;;;;;;;5092930;28;20180;-77
2022/04/20 12:03:41;;;;;;;4.55;2.28;;;;;;;;;;5091980;28;20122;-77
2022/04/20 12:06:08;;;;;;;4.45;1.50;;;;;;;;;;5081366;28;20050;-77
2022/04/20 12:08:41;;;;;;;2.50;1.52;;;;;;;;;;5075575;28;20046;-77
2022/04/20 12:11:09;;;;;;;3.33;1.83;;;;;;;;;;5092443;28;20411;-77
2022/04/20 12:13:35;;;;;;;2.47;1.48;;;;;;;;;;5092674;28;20122;-77
2022/04/20 12:16:11;;;;;;;3.42;1.60;;;;;;;;;;5092327;28;20257;-76
2022/04/20 12:18:40;;;;;;;2.58;1.60;;;;;;;;;;5092366;28;20040;-76
2022/04/20 12:21:26;;;;;;;3.83;1.70;;;;;;;;;;5092712;28;20089;-78
2022/04/20 12:23:52;;;;;;;1.98;1.60;;;;;;;;;;5077320;28;20084;-77
2022/04/20 12:26:26;;;;;;;4.40;1.60;;;;;;;;;;5092421;28;20077;-77
2022/04/20 12:28:57;;;;;;;2.15;1.45;;;;;;;;;;5092446;28;20705;-77
2022/04/20 12:31:24;;;;;;;2.22;1.40;;;;;;;;;;5092061;28;20192;-77
2022/04/20 12:34:04;;;;;;;2.63;1.60;;;;;;;;;;5088556;28;20048;-76
2022/04/20 12:36:31;;;;;;;3.63;1.40;;;;;;;;;;5089339;28;20040;-76
2022/04/20 12:38:58;;;;;;;3.38;1.50;;;;;;;;;;5088803;28;20415;-77
2022/04/20 12:41:44;;;;;;;2.83;1.55;;;;;;;;;;5072142;28;20043;-77
2022/04/20 12:44:31;;;;;;;2.58;1.48;;;;;;;;;;5071852;28;20043;-76
2022/04/20 12:46:57;;;;;;;2.55;1.40;;;;;;;;;;5071838;28;20127;-77
2022/04/20 12:49:25;;;;;;;2.35;1.38;;;;;;;;;;5071701;28;20590;-77
2022/04/20 12:51:51;;;;;;;4.78;1.80;;;;;;;;;;5077549;28;20071;-77
2022/04/20 12:54:24;;;;;;;3.92;1.65;;;;;;;;;;5074667;28;20130;-77
2022/04/20 13:02:20;;;;;;;3.30;1.67;;;;;;;;;;5079139;28;20050;-78
2022/04/20 13:04:50;;;;;;;3.60;1.60;;;;;;;;;;5070435;28;20076;-77
2022/04/20 13:07:16;;;;;;;4.13;1.50;;;;;;;;;;5087943;28;20044;-77
2022/04/20 13:09:42;;;;;;;3.20;1.67;;;;;;;;;;5071215;28;20448;-77
2022/04/20 13:12:08;;;;;;;4.18;1.88;;;;;;;;;;5071393;28;20032;-78
2022/04/20 13:14:36;;;;;;;3.47;2.20;;;;;;;;;;5087934;28;20434;-78
2022/04/20 13:17:02;;;;;;;4.18;1.90;;;;;;;;;;5087803;28;20043;-78
2022/04/20 13:19:28;;;;;;;4.03;1.80;;;;;;;;;;5087979;28;20252;-78
2022/04/20 13:21:55;;;;;;;4.32;1.98;;;;;;;;;;5085502;28;20083;-77
2022/04/20 13:29:50;;;;;;;4.13;2.13;;;;;;;;;;5087416;28;20050;-77
2022/04/20 13:32:17;;;;;;;2.83;1.88;;;;;;;;;;5087648;28;20036;-78
2022/04/20 13:34:43;;;;;;;5.40;2.40;;;;;;;;;;5087409;28;20040;-77
2022/04/20 13:37:09;;;;;;;3.80;2.10;;;;;;;;;;5087509;28;20068;-78
2022/04/20 13:39:35;;;;;;;3.78;2.13;;;;;;;;;;5070576;28;20048;-78
2022/04/20 13:42:02;;;;;;;4.40;2.50;;;;;;;;;;5087331;28;20352;-78
2022/04/20 13:44:28;;;;;;;3.67;2.17;;;;;;;;;;5087334;28;20047;-78
2022/04/20 13:46:54;;;;;;;4.13;2.33;;;;;;;;;;5070480;28;20050;-77
2022/04/20 13:49:21;;;;;;;4.75;2.13;;;;;;;;;;5087217;28;20040;-76
2022/04/20 13:51:47;;;;;;;2.83;1.58;;;;;;;;;;5087440;28;20093;-78
2022/04/20 13:54:14;;;;;;;3.22;1.50;;;;;;;;;;5087353;28;20205;-77
2022/04/20 13:56:41;;;;;;;3.15;1.65;;;;;;;;;;5077947;28;20403;-77
2022/04/20 13:59:07;;;;;;;3.50;2.15;;;;;;;;;;5084012;28;20186;-77
2022/04/20 14:01:33;;;;;;;4.05;2.40;;;;;;;;;;5069872;28;20064;-77
2022/04/20 14:03:59;;;;;;;3.28;2.30;;;;;;;;;;5086646;28;20036;-78
2022/04/20 14:06:25;;;;;;;5.45;2.72;;;;;;;;;;5077607;28;20036;-77
2022/04/20 14:08:51;;;;;;;5.47;3.70;;;;;;;;;;5070531;28;20129;-78
2022/04/20 14:11:18;;;;;;;6.28;3.80;;;;;;;;;;5078454;28;20094;-78
2022/04/20 14:13:44;;;;;;;6.32;3.47;;;;;;;;;;5086389;28;20036;-78
2022/04/20 14:16:10;;;;;;;5.85;3.90;;;;;;;;;;5086664;28;20036;-77
2022/04/20 14:18:36;;;;;;;5.65;3.17;;;;;;;;;;5086258;28;20040;-77
2022/04/20 14:21:02;;;;;;;6.70;4.43;;;;;;;;;;5069354;28;20074;-78
2022/04/20 14:23:29;;;;;;;7.28;4.60;;;;;;;;;;5086126;28;20079;-77
2022/04/20 14:34:13;;;;;;;8.57;4.93;;;;;;;;;;5090783;28;20048;-77
2022/04/20 14:36:39;;;;;;;7.38;4.65;;;;;;;;;;5074508;28;20032;-77
2022/04/20 14:39:05;;;;;;;7.22;4.32;;;;;;;;;;5091110;28;20036;-77
2022/04/20 14:41:31;;;;;;;5.18;3.88;;;;;;;;;;5073900;28;20394;-76
2022/04/20 14:43:58;;;;;;;7.00;4.20;;;;;;;;;;5090981;28;20113;-78
2022/04/20 14:46:26;;;;;;;6.80;4.20;;;;;;;;;;5091003;28;20240;-77
2022/04/20 14:48:52;;;;;;;7.90;4.57;;;;;;;;;;5091225;28;20430;-77
2022/04/20 14:51:21;;;;;;;6.90;4.63;;;;;;;;;;5089376;28;20040;-77
2022/04/20 14:53:49;;;;;;;5.85;4.32;;;;;;;;;;5090769;28;20119;-77
2022/04/20 14:56:15;;;;;;;6.75;4.78;;;;;;;;;;5090890;28;20487;-77
2022/04/20 14:58:43;;;;;;;6.50;4.30;;;;;;;;;;5090602;28;20141;-77
2022/04/20 15:01:09;;;;;;;6.68;4.60;;;;;;;;;;5089896;28;20062;-77
2022/04/20 15:03:35;;;;;;;6.38;4.15;;;;;;;;;;5073326;28;20048;-77
2022/04/20 15:06:01;;;;;;;7.40;4.60;;;;;;;;;;5090781;28;20519;-77
2022/04/20 15:08:28;;;;;;;6.82;4.72;;;;;;;;;;5090277;28;20044;-78
2022/04/20 15:10:56;;;;;;;7.95;4.93;;;;;;;;;;5089378;28;20518;-77
2022/04/20 15:13:23;;;;;;;8.00;4.78;;;;;;;;;;5090061;28;20040;-77
2022/04/20 15:15:49;;;;;;;8.73;5.15;;;;;;;;;;5090462;28;20075;-77
2022/04/20 15:18:15;;;;;;;6.65;4.78;;;;;;;;;;5089983;28;20036;-78
2022/04/20 15:20:42;;;;;;;9.95;5.43;;;;;;;;;;5089475;28;20044;-77
2022/04/20 15:23:09;;;;;;;6.63;4.85;;;;;;;;;;5090272;28;20479;-77
2022/04/20 15:25:35;;;;;;;7.28;5.05;;;;;;;;;;5088452;28;20437;-77
2022/04/20 15:28:02;;;;;;;6.85;5.43;;;;;;;;;;5089870;28;20062;-78
2022/04/20 15:30:36;;;;;;;8.63;5.53;;;;;;;;;;5088341;28;20556;-78
2022/04/20 15:33:03;;;;;;;7.50;5.50;;;;;;;;;;5089442;28;20079;-77
2022/04/20 15:35:29;;;;;;;7.57;5.57;;;;;;;;;;5091510;28;20039;-77